Time;durP1;ratioP1;P1;durP2;ratioP2;P2;SDS_P1;SDS_P2;PMS_P1;PMS_P2;Temp;Humidity;BMP_temperature;BMP_pressure;BME280_temperature;BME280_humidity;BME280_pressure;Samples;Min_cycle;Max_cycle;Signal;HPM_P1;HPM_P2
2023/10/15 00:00:50;;;;;;;4.67;1.87;;;;;;;9.12;68.33;95822.84;4947885;29;20246;-81
2023/10/15 00:03:15;;;;;;;4.27;1.40;;;;;;;9.28;68.51;95817.19;4926738;29;20709;-83
2023/10/15 00:05:41;;;;;;;6.17;1.20;;;;;;;9.22;67.71;95818.53;4949139;28;20186;-81
2023/10/15 00:08:06;;;;;;;6.10;1.33;;;;;;;9.43;67.55;95820.19;4945523;29;20210;-82
2023/10/15 00:10:32;;;;;;;4.60;1.10;;;;;;;9.36;67.79;95812.13;4926877;29;20196;-81
2023/10/15 00:12:58;;;;;;;5.03;1.30;;;;;;;9.40;67.99;95815.28;4943780;29;20189;-82
2023/10/15 00:15:28;;;;;;;5.00;1.30;;;;;;;9.30;68.39;95810.91;4942248;28;20217;-82
2023/10/15 00:17:56;;;;;;;4.57;1.30;;;;;;;9.32;68.33;95818.53;4948521;29;20209;-83
2023/10/15 00:20:31;;;;;;;7.07;1.47;;;;;;;9.29;68.17;95819.63;4931639;29;20185;-83
2023/10/15 00:22:57;;;;;;;7.43;1.30;;;;;;;9.34;68.20;95817.44;4936508;29;20189;-82
2023/10/15 00:25:22;;;;;;;7.43;1.50;;;;;;;9.31;68.17;95809.94;4935143;29;20256;-81
2023/10/15 00:27:52;;;;;;;3.90;1.33;;;;;;;9.28;68.35;95806.81;4927053;29;20748;-83
2023/10/15 00:30:19;;;;;;;4.80;1.40;;;;;;;9.50;68.06;95801.38;4926626;29;20185;-81
2023/10/15 00:32:45;;;;;;;6.57;1.17;;;;;;;9.30;68.57;95805.72;4932248;29;20192;-82
2023/10/15 00:35:11;;;;;;;4.83;2.00;;;;;;;9.36;68.24;95799.16;4921850;29;20235;-82
2023/10/15 00:37:40;;;;;;;3.90;1.37;;;;;;;9.39;67.96;95798.91;4923403;29;20206;-82
2023/10/15 00:40:10;;;;;;;5.20;1.67;;;;;;;9.51;68.16;95797.00;4928063;29;20324;-81
2023/10/15 00:42:39;;;;;;;5.17;1.40;;;;;;;9.48;68.52;95797.28;4932806;29;20185;-82
2023/10/15 00:45:05;;;;;;;7.87;1.67;;;;;;;9.40;68.23;95789.38;4940661;29;20296;-82
2023/10/15 00:47:34;;;;;;;7.17;1.50;;;;;;;9.49;68.11;95791.16;4940560;28;20698;-84
2023/10/15 00:50:07;;;;;;;4.53;1.60;;;;;;;9.55;68.24;95796.63;4940311;29;20545;-82
2023/10/15 00:52:34;;;;;;;3.53;1.20;;;;;;;9.67;67.99;95796.50;4925491;29;20644;-83
2023/10/15 00:55:00;;;;;;;6.43;1.67;;;;;;;9.64;68.03;95788.03;4942968;29;20182;-83
2023/10/15 00:57:41;;;;;;;4.77;1.20;;;;;;;9.48;68.45;95794.69;4919975;29;20261;-82
2023/10/15 01:02:56;;;;;;;4.93;1.23;;;;;;;9.61;68.35;95793.47;4941926;29;20264;-83
2023/10/15 01:05:24;;;;;;;2.83;1.10;;;;;;;9.54;68.76;95786.38;4925984;29;20197;-82
2023/10/15 01:07:51;;;;;;;3.90;1.30;;;;;;;9.61;68.45;95787.47;4938452;28;20684;-83
2023/10/15 01:10:36;;;;;;;5.93;1.50;;;;;;;9.60;68.71;95793.59;4930519;29;20233;-82
2023/10/15 01:13:10;;;;;;;6.60;1.37;;;;;;;9.72;68.15;95781.31;4937976;29;20181;-82
2023/10/15 01:15:41;;;;;;;5.97;1.40;;;;;;;9.68;68.47;95773.00;4958575;28;20189;-81
2023/10/15 01:18:07;;;;;;;4.20;1.17;;;;;;;9.66;68.46;95780.09;4940604;29;20687;-81
2023/10/15 01:20:36;;;;;;;7.20;1.37;;;;;;;9.66;68.69;95782.72;4928088;29;20196;-81
2023/10/15 01:23:01;;;;;;;7.30;1.33;;;;;;;9.64;68.56;95784.63;4917908;29;20209;-83
2023/10/15 01:25:32;;;;;;;6.20;1.63;;;;;;;9.55;69.10;95782.84;4935734;29;20185;-81
2023/10/15 01:28:00;;;;;;;5.50;1.50;;;;;;;9.70;69.32;95781.47;4934686;29;20240;-83
2023/10/15 01:30:26;;;;;;;10.43;1.60;;;;;;;9.69;68.91;95777.22;4928954;29;20272;-83
2023/10/15 01:32:51;;;;;;;4.73;1.37;;;;;;;9.62;69.25;95778.72;4941054;29;20280;-83
2023/10/15 01:35:19;;;;;;;10.67;1.53;;;;;;;9.42;70.07;95775.31;4935737;29;20189;-81
2023/10/15 01:38:09;;;;;;;8.77;1.67;;;;;;;9.36;69.80;95778.44;4948788;28;20261;-82
2023/10/15 01:40:37;;;;;;;4.60;1.43;;;;;;;9.49;69.45;95779.00;4945326;29;20241;-82
2023/10/15 01:43:08;;;;;;;4.60;1.20;;;;;;;9.56;69.46;95776.69;4927675;29;20200;-82
2023/10/15 01:45:38;;;;;;;4.00;1.57;;;;;;;9.57;69.40;95780.94;4943451;29;20277;-82
2023/10/15 01:48:05;;;;;;;4.70;1.50;;;;;;;9.65;69.37;95778.47;4931887;29;20699;-82
2023/10/15 01:50:41;;;;;;;5.40;1.60;;;;;;;9.51;69.52;95774.50;4948415;29;20182;-81
2023/10/15 01:53:06;;;;;;;7.17;1.63;;;;;;;9.57;69.53;95778.34;4930574;29;20205;-82
2023/10/15 01:55:35;;;;;;;5.07;1.43;;;;;;;9.61;69.53;95779.69;4945107;29;20196;-82
2023/10/15 01:58:00;;;;;;;6.80;1.27;;;;;;;9.64;69.22;95777.66;4960477;28;20261;-81
2023/10/15 02:03:07;;;;;;;4.70;1.47;;;;;;;9.58;69.62;95774.78;4944554;29;20204;-80
2023/10/15 02:05:41;;;;;;;8.47;1.57;;;;;;;9.43;70.28;95774.34;4936628;29;20235;-81
2023/10/15 02:08:07;;;;;;;5.20;1.60;;;;;;;9.30;70.72;95769.44;4925580;29;20217;-82
2023/10/15 02:10:35;;;;;;;3.57;1.40;;;;;;;9.51;69.85;95771.09;4950503;28;20184;-81
2023/10/15 02:13:04;;;;;;;6.27;1.60;;;;;;;9.49;70.18;95768.63;4926728;29;20193;-84
2023/10/15 02:15:39;;;;;;;5.60;1.50;;;;;;;9.54;70.23;95769.06;4950589;29;20245;-84
2023/10/15 02:18:13;;;;;;;7.23;1.83;;;;;;;9.52;69.83;95762.34;4917084;29;20746;-84
2023/10/15 02:20:46;;;;;;;3.47;1.47;;;;;;;9.42;70.48;95754.56;4941854;29;20181;-83
2023/10/15 02:23:12;;;;;;;6.67;1.70;;;;;;;9.41;70.78;95762.50;4923376;29;20233;-82
2023/10/15 02:25:48;;;;;;;3.50;1.47;;;;;;;9.52;69.96;95762.34;4946746;29;20190;-81
2023/10/15 02:28:18;;;;;;;4.47;1.33;;;;;;;9.27;70.56;95753.31;4931554;29;20675;-82
2023/10/15 02:30:46;;;;;;;5.37;1.83;;;;;;;9.44;70.12;95754.44;4949248;29;20177;-82
2023/10/15 02:33:16;;;;;;;5.20;1.50;;;;;;;9.43;70.30;95757.97;4945216;29;20185;-80
2023/10/15 02:35:45;;;;;;;7.30;1.67;;;;;;;9.42;70.32;95751.97;4937637;29;20251;-81
2023/10/15 02:38:11;;;;;;;6.87;1.47;;;;;;;9.46;70.39;95757.72;4929342;28;20306;-81
2023/10/15 02:43:24;;;;;;;5.33;1.37;;;;;;;9.51;70.71;95755.53;4942340;29;20738;-82
2023/10/15 02:45:49;;;;;;;5.87;1.37;;;;;;;9.45;70.39;95761.25;4932290;29;20188;-83
2023/10/15 02:48:19;;;;;;;6.13;1.63;;;;;;;9.62;70.27;95757.97;4941766;29;20221;-84
2023/10/15 02:50:58;;;;;;;3.60;1.00;;;;;;;9.59;70.03;95759.09;4945024;29;20892;-84
2023/10/15 02:53:23;;;;;;;4.80;1.70;;;;;;;9.65;70.06;95755.13;4945565;29;20213;-84
2023/10/15 02:55:48;;;;;;;3.63;1.50;;;;;;;9.62;70.76;95757.97;4949565;29;20186;-84
2023/10/15 02:58:16;;;;;;;4.20;1.50;;;;;;;9.49;70.74;95755.69;4939752;29;20237;-83
2023/10/15 03:00:42;;;;;;;6.97;1.50;;;;;;;9.43;70.61;95763.16;4934911;29;20208;-83
2023/10/15 03:03:09;;;;;;;4.77;1.40;;;;;;;9.38;70.84;95761.00;4932291;29;20201;-84
2023/10/15 03:05:41;;;;;;;6.20;1.67;;;;;;;9.50;70.59;95756.50;4945034;29;20213;-82
2023/10/15 03:08:06;;;;;;;6.60;1.50;;;;;;;9.48;70.99;95763.59;4943436;29;20205;-84
2023/10/15 03:13:32;;;;;;;8.27;1.80;;;;;;;9.57;70.42;95757.59;4925974;29;20257;-84
2023/10/15 03:15:57;;;;;;;7.17;1.60;;;;;;;9.58;71.07;95757.44;4912330;29;20230;-84
2023/10/15 03:18:23;;;;;;;5.37;1.70;;;;;;;9.62;70.75;95763.16;4909730;29;20711;-84
2023/10/15 03:21:09;;;;;;;6.43;1.53;;;;;;;9.63;70.73;95764.84;4917105;29;20193;-84
2023/10/15 03:23:35;;;;;;;6.17;1.43;;;;;;;9.47;71.35;95760.19;4893957;29;21241;-84
2023/10/15 03:26:00;;;;;;;4.40;1.50;;;;;;;9.63;71.29;95757.88;4892029;29;20204;-84
2023/10/15 03:28:26;;;;;;;5.83;1.73;;;;;;;9.73;70.60;95750.09;4919009;29;20229;-84
2023/10/15 03:30:56;;;;;;;5.93;1.60;;;;;;;9.47;71.38;95754.19;4908583;29;20209;-82
2023/10/15 03:33:23;;;;;;;12.77;2.20;;;;;;;9.58;71.42;95760.03;4910296;29;20400;-84
2023/10/15 03:35:54;;;;;;;3.77;1.70;;;;;;;9.68;71.14;95756.63;4910979;29;20201;-83
2023/10/15 03:38:24;;;;;;;7.03;2.00;;;;;;;9.45;71.89;95749.09;4912078;29;20301;-84
2023/10/15 03:41:06;;;;;;;9.53;2.10;;;;;;;9.54;72.00;95760.44;4936143;29;20198;-84
2023/10/15 03:43:35;;;;;;;7.07;1.63;;;;;;;9.52;71.93;95763.16;4910924;29;20757;-84
2023/10/15 03:46:11;;;;;;;6.73;1.67;;;;;;;9.68;71.56;95767.00;4905432;29;20237;-83
2023/10/15 03:48:47;;;;;;;5.83;2.13;;;;;;;9.76;71.23;95765.38;4943539;29;20308;-84
2023/10/15 03:51:15;;;;;;;6.00;1.60;;;;;;;9.73;71.59;95768.25;4943361;29;20279;-84
2023/10/15 03:53:41;;;;;;;4.80;1.77;;;;;;;9.71;72.17;95756.34;4923510;29;20198;-83
2023/10/15 03:56:07;;;;;;;6.70;1.57;;;;;;;9.78;72.54;95765.22;4947222;29;20614;-84
2023/10/15 03:58:32;;;;;;;7.77;1.87;;;;;;;9.71;72.65;95764.13;4930909;29;20197;-85
2023/10/15 04:01:17;;;;;;;4.43;1.80;;;;;;;9.78;73.20;95757.44;4934566;29;20189;-83
2023/10/15 04:03:49;;;;;;;6.63;1.97;;;;;;;9.81;73.46;95773.56;4928529;29;20213;-83
2023/10/15 04:06:16;;;;;;;4.67;1.83;;;;;;;9.59;74.15;95773.81;4931827;29;20214;-83
2023/10/15 04:11:30;;;;;;;9.77;1.90;;;;;;;9.59;76.39;95768.63;4939912;29;20200;-84
2023/10/15 04:13:57;;;;;;;3.00;1.70;;;;;;;9.60;76.92;95765.91;4929688;29;20252;-83
2023/10/15 04:16:23;;;;;;;8.07;1.80;;;;;;;9.72;76.46;95768.34;4928028;29;20692;-83
2023/10/15 04:18:48;;;;;;;6.37;1.97;;;;;;;9.68;76.78;95767.81;4929921;29;20220;-83
2023/10/15 04:21:16;;;;;;;4.73;1.73;;;;;;;9.71;76.67;95764.94;4926489;29;20652;-83
2023/10/15 04:23:45;;;;;;;6.73;2.07;;;;;;;9.71;77.61;95774.50;4946569;29;20217;-83
2023/10/15 04:26:13;;;;;;;7.70;2.23;;;;;;;9.72;77.54;95773.53;4931156;29;21613;-82
2023/10/15 04:28:40;;;;;;;7.80;2.43;;;;;;;9.60;78.27;95771.09;4927038;29;20197;-82
2023/10/15 04:31:11;;;;;;;5.60;1.70;;;;;;;9.51;78.44;95769.31;4945737;29;20193;-84
2023/10/15 04:33:41;;;;;;;4.93;1.97;;;;;;;9.67;78.75;95776.56;4934793;29;20902;-83
2023/10/15 04:36:09;;;;;;;5.47;2.17;;;;;;;9.59;78.34;95777.22;4941395;28;20201;-82
2023/10/15 04:38:35;;;;;;;5.13;2.00;;;;;;;9.65;78.69;95770.69;4930354;29;20277;-83
2023/10/15 04:41:03;;;;;;;6.63;2.23;;;;;;;9.60;79.53;95765.09;4925267;29;20216;-82
2023/10/15 04:43:29;;;;;;;4.97;2.10;;;;;;;9.57;80.07;95766.19;4938507;29;20220;-83
2023/10/15 04:45:55;;;;;;;7.83;3.03;;;;;;;9.55;79.36;95772.47;4931371;29;20197;-82
2023/10/15 04:48:27;;;;;;;6.10;2.10;;;;;;;9.46;79.23;95773.28;4935884;29;20758;-82
2023/10/15 04:50:53;;;;;;;4.90;1.90;;;;;;;9.52;79.29;95770.13;4943977;28;20293;-83
2023/10/15 04:55:48;;;;;;;5.23;1.93;;;;;;;9.64;78.66;95769.88;4942438;28;20291;-82
2023/10/15 04:58:14;;;;;;;8.97;2.40;;;;;;;9.55;79.42;95772.47;4939034;29;20349;-82
2023/10/15 05:00:44;;;;;;;5.07;2.23;;;;;;;9.46;79.30;95765.50;4927579;29;20236;-81
2023/10/15 05:03:10;;;;;;;8.03;2.40;;;;;;;9.40;79.76;95768.63;4948190;28;20675;-81
2023/10/15 05:05:36;;;;;;;7.47;2.87;;;;;;;9.46;79.50;95768.91;4953399;29;20235;-83
2023/10/15 05:08:02;;;;;;;5.63;2.43;;;;;;;9.36;79.95;95774.09;4927198;29;20337;-84
2023/10/15 05:10:32;;;;;;;9.70;2.97;;;;;;;9.23;80.37;95772.69;4940578;29;20571;-83
2023/10/15 05:12:59;;;;;;;7.40;2.80;;;;;;;9.28;79.65;95776.53;4926320;29;20194;-82
2023/10/15 05:15:25;;;;;;;6.23;2.40;;;;;;;9.29;79.56;95778.16;4946198;29;20185;-81
2023/10/15 05:17:50;;;;;;;4.60;2.50;;;;;;;9.41;79.25;95778.03;4931871;29;20205;-82
2023/10/15 05:20:16;;;;;;;6.97;3.10;;;;;;;9.31;79.60;95775.44;4933601;29;20278;-81
2023/10/15 05:22:41;;;;;;;3.70;2.40;;;;;;;9.21;79.57;95767.66;4938397;29;20197;-82
2023/10/15 05:25:15;;;;;;;7.13;2.90;;;;;;;9.25;79.50;95775.97;4942293;29;20210;-82
2023/10/15 05:27:44;;;;;;;4.67;2.83;;;;;;;9.27;79.33;95776.66;4946173;29;20205;-83
2023/10/15 05:30:11;;;;;;;7.07;3.27;;;;;;;9.31;79.18;95776.25;4931284;29;20192;-82
2023/10/15 05:32:36;;;;;;;11.37;3.40;;;;;;;9.25;79.05;95776.78;4926098;29;20201;-84
2023/10/15 05:35:02;;;;;;;9.40;2.80;;;;;;;9.33;78.52;95766.56;4920706;29;20182;-83
2023/10/15 05:37:28;;;;;;;5.83;3.00;;;;;;;9.25;79.28;95773.38;4949257;29;20213;-83
2023/10/15 05:39:53;;;;;;;9.33;3.13;;;;;;;9.30;78.75;95779.81;4928862;29;20197;-83
2023/10/15 05:42:18;;;;;;;9.57;3.63;;;;;;;9.27;79.30;95782.66;4944891;28;20194;-83
2023/10/15 05:44:44;;;;;;;6.13;3.37;;;;;;;9.23;79.61;95796.84;4924993;29;20225;-83
2023/10/15 05:47:09;;;;;;;8.90;3.67;;;;;;;9.19;79.09;95792.88;4931788;29;20306;-83
2023/10/15 05:49:36;;;;;;;13.57;3.90;;;;;;;9.15;79.09;95794.09;4943189;29;20236;-83
2023/10/15 05:52:06;;;;;;;7.53;3.70;;;;;;;9.22;79.87;95800.38;4929081;29;20672;-82
2023/10/15 05:54:34;;;;;;;7.23;4.00;;;;;;;9.20;79.07;95794.53;4937461;29;20754;-82
2023/10/15 05:57:02;;;;;;;9.40;4.23;;;;;;;9.07;79.39;95793.94;4938566;29;20213;-82
2023/10/15 05:59:27;;;;;;;10.67;4.00;;;;;;;9.17;79.50;95801.72;4935485;29;20271;-83
2023/10/15 06:01:53;;;;;;;7.83;4.57;;;;;;;9.07;78.72;95801.69;4945032;29;20233;-82
2023/10/15 06:04:18;;;;;;;10.60;3.90;;;;;;;9.09;78.83;95807.56;4927662;29;20285;-83
2023/10/15 06:06:43;;;;;;;8.57;3.77;;;;;;;9.18;78.67;95806.75;4929529;29;20224;-82
2023/10/15 06:09:11;;;;;;;11.03;4.07;;;;;;;9.19;78.23;95813.63;4945421;29;20197;-82
2023/10/15 06:11:36;;;;;;;10.17;3.90;;;;;;;9.14;78.22;95807.19;4936625;29;20210;-82
2023/10/15 06:14:04;;;;;;;8.57;4.10;;;;;;;9.27;78.06;95815.50;4927968;29;20217;-82
2023/10/15 06:16:30;;;;;;;10.27;4.17;;;;;;;9.32;77.86;95819.34;4949908;29;20205;-83
2023/10/15 06:18:55;;;;;;;9.37;4.03;;;;;;;9.47;77.40;95816.41;4945544;29;20186;-82
2023/10/15 06:21:20;;;;;;;8.97;3.93;;;;;;;9.47;77.29;95826.75;4963319;28;20285;-82
2023/10/15 06:23:46;;;;;;;7.60;3.47;;;;;;;9.44;76.57;95829.59;4940906;28;20249;-82
2023/10/15 06:26:11;;;;;;;7.87;3.30;;;;;;;9.52;76.96;95834.94;4943833;29;20229;-81
2023/10/15 06:28:36;;;;;;;8.83;3.63;;;;;;;9.48;76.59;95841.38;4930914;29;20613;-82
2023/10/15 06:31:02;;;;;;;9.07;3.67;;;;;;;9.36;76.25;95833.72;4949995;29;20634;-81
2023/10/15 06:33:29;;;;;;;7.00;2.77;;;;;;;9.48;76.29;95831.81;4928254;29;20190;-80
2023/10/15 06:35:54;;;;;;;9.63;3.10;;;;;;;9.57;74.94;95831.00;4943955;29;21515;-82
2023/10/15 06:38:19;;;;;;;9.87;3.47;;;;;;;9.57;75.92;95828.41;4938189;29;20197;-81
2023/10/15 06:40:45;;;;;;;9.47;3.13;;;;;;;9.58;75.74;95843.00;4948568;28;20193;-82
2023/10/15 06:43:11;;;;;;;5.43;3.27;;;;;;;9.44;75.86;95838.19;4930465;29;20219;-81
2023/10/15 06:45:37;;;;;;;6.37;2.80;;;;;;;9.46;75.56;95843.28;4940745;28;20802;-81
2023/10/15 06:48:03;;;;;;;7.10;3.47;;;;;;;9.63;75.64;95853.81;4947760;28;20221;-82
2023/10/15 06:50:28;;;;;;;5.63;2.30;;;;;;;9.64;75.27;95852.84;4944570;29;20189;-81
2023/10/15 06:52:54;;;;;;;6.07;2.53;;;;;;;9.63;75.76;95858.19;4937742;29;20209;-79
2023/10/15 06:55:20;;;;;;;6.27;2.87;;;;;;;9.67;75.57;95864.72;4944621;29;20192;-81
2023/10/15 06:57:46;;;;;;;6.43;2.33;;;;;;;9.79;74.74;95863.63;4929451;29;20218;-81
2023/10/15 07:00:21;;;;;;;5.80;2.70;;;;;;;9.82;74.56;95863.38;4929657;29;20190;-80
2023/10/15 07:02:48;;;;;;;8.30;2.37;;;;;;;9.82;74.98;95867.75;4946290;29;20193;-81
2023/10/15 07:05:16;;;;;;;7.00;2.13;;;;;;;9.96;74.71;95869.13;4946496;28;20220;-84
2023/10/15 07:07:41;;;;;;;3.07;2.13;;;;;;;10.03;74.87;95865.84;4931469;29;20221;-82
2023/10/15 07:10:07;;;;;;;8.17;2.50;;;;;;;10.04;74.55;95874.44;4922307;29;20664;-80
2023/10/15 07:12:33;;;;;;;7.83;2.67;;;;;;;9.96;74.48;95882.91;4934873;29;20238;-82
2023/10/15 07:14:59;;;;;;;6.27;2.30;;;;;;;9.91;74.57;95875.53;4954730;28;20186;-81
2023/10/15 07:17:24;;;;;;;4.10;2.03;;;;;;;9.80;74.35;95890.41;4930597;29;20587;-81
2023/10/15 07:19:49;;;;;;;5.80;2.60;;;;;;;9.96;75.05;95889.88;4942859;29;20205;-81
2023/10/15 07:22:15;;;;;;;6.63;2.33;;;;;;;10.24;73.82;95889.09;4943685;29;20190;-80
2023/10/15 07:24:40;;;;;;;6.93;2.33;;;;;;;10.30;73.51;95893.75;4924907;28;20216;-80
2023/10/15 07:27:05;;;;;;;8.97;2.53;;;;;;;10.37;72.92;95889.66;4929715;29;20599;-81
2023/10/15 07:29:31;;;;;;;7.50;2.57;;;;;;;10.55;72.75;95894.13;4944622;29;20281;-80
2023/10/15 07:31:57;;;;;;;8.40;2.80;;;;;;;10.60;72.59;95891.91;4950626;29;20832;-81
2023/10/15 07:34:26;;;;;;;4.60;2.27;;;;;;;10.68;71.59;95897.25;4920567;29;20174;-79
2023/10/15 07:36:55;;;;;;;5.50;2.33;;;;;;;10.50;71.44;95889.34;4940297;29;20229;-80
2023/10/15 07:39:21;;;;;;;5.50;2.60;;;;;;;10.35;71.98;95891.56;4931174;29;20659;-80
2023/10/15 07:41:46;;;;;;;6.13;2.13;;;;;;;10.65;70.78;95890.56;4932781;29;20185;-80
2023/10/15 07:44:14;;;;;;;6.87;2.40;;;;;;;10.65;70.44;95893.16;4939418;29;20209;-81
2023/10/15 07:46:42;;;;;;;4.30;2.17;;;;;;;10.51;70.21;95883.19;4932656;29;20680;-81
2023/10/15 07:49:09;;;;;;;6.00;2.27;;;;;;;10.47;70.30;95890.44;4925610;29;20200;-81
2023/10/15 07:51:34;;;;;;;5.50;2.00;;;;;;;10.39;70.54;95892.09;4962268;28;20204;-81
2023/10/15 07:53:59;;;;;;;7.47;2.17;;;;;;;10.51;70.45;95893.56;4931255;29;20177;-80
2023/10/15 07:56:25;;;;;;;4.40;2.00;;;;;;;10.61;70.57;95902.19;4933190;29;20198;-80
2023/10/15 07:58:50;;;;;;;6.77;2.63;;;;;;;10.57;70.51;95897.41;4938177;28;20182;-80
2023/10/15 08:01:16;;;;;;;4.77;2.13;;;;;;;10.56;69.69;95906.16;4931246;29;20186;-81
2023/10/15 08:03:42;;;;;;;5.20;2.60;;;;;;;10.65;69.33;95898.34;4935389;29;20208;-81
2023/10/15 08:06:07;;;;;;;4.73;1.80;;;;;;;10.72;68.49;95901.22;4926879;29;20190;-79
2023/10/15 08:08:34;;;;;;;9.63;3.20;;;;;;;11.12;68.24;95900.13;4943519;29;20644;-81
2023/10/15 08:11:00;;;;;;;4.77;2.67;;;;;;;11.14;67.47;95904.25;4916606;29;20587;-80
2023/10/15 08:13:25;;;;;;;6.47;2.27;;;;;;;11.00;67.97;95910.72;4929519;29;20275;-79
2023/10/15 08:15:51;;;;;;;5.40;1.97;;;;;;;11.09;66.86;95914.25;4922093;29;20194;-79
2023/10/15 08:18:16;;;;;;;4.93;2.57;;;;;;;11.17;66.36;95919.56;4938767;29;20391;-79
2023/10/15 08:20:41;;;;;;;4.90;2.13;;;;;;;10.98;67.10;95909.22;4932435;29;20198;-79
2023/10/15 08:23:06;;;;;;;4.27;2.10;;;;;;;10.95;67.60;95906.88;4933971;29;20193;-80
2023/10/15 08:25:32;;;;;;;3.83;1.97;;;;;;;10.91;67.56;95913.34;4914877;29;20213;-80
2023/10/15 08:27:57;;;;;;;5.57;2.93;;;;;;;10.81;68.51;95915.97;4939285;29;20221;-80
2023/10/15 08:30:22;;;;;;;8.77;2.70;;;;;;;10.28;69.23;95911.22;4928911;29;20213;-79
2023/10/15 08:32:48;;;;;;;7.67;2.33;;;;;;;10.58;69.58;95918.03;4941402;28;20266;-80
2023/10/15 08:35:14;;;;;;;4.00;2.10;;;;;;;10.46;69.73;95914.78;4929178;28;20189;-79
2023/10/15 08:37:40;;;;;;;6.73;2.30;;;;;;;10.24;69.78;95907.25;4928797;29;20256;-80
2023/10/15 08:40:06;;;;;;;6.27;2.63;;;;;;;10.37;68.98;95923.38;4941544;29;20185;-79
2023/10/15 08:42:42;;;;;;;8.77;3.83;;;;;;;10.62;69.46;95918.59;4925033;29;20182;-80
2023/10/15 08:45:08;;;;;;;7.20;2.90;;;;;;;10.47;69.44;95921.59;4919771;29;20225;-80
2023/10/15 08:47:34;;;;;;;4.27;2.70;;;;;;;10.52;69.46;95918.59;4939116;28;20224;-80
2023/10/15 08:50:00;;;;;;;8.80;3.80;;;;;;;10.52;69.37;95920.38;4922871;29;20295;-79
2023/10/15 08:52:26;;;;;;;7.53;4.47;;;;;;;10.31;69.28;95917.91;4926817;29;20287;-79
2023/10/15 08:54:53;;;;;;;4.77;2.63;;;;;;;10.29;68.95;95919.84;4910438;29;20225;-79
2023/10/15 08:57:19;;;;;;;6.80;3.80;;;;;;;10.32;68.79;95915.19;4921184;29;20216;-80
2023/10/15 08:59:44;;;;;;;6.43;2.80;;;;;;;10.60;67.25;95921.34;4943352;29;20189;-80
2023/10/15 09:02:10;;;;;;;8.23;3.53;;;;;;;10.58;67.21;95922.41;4922636;29;20200;-80
2023/10/15 09:04:36;;;;;;;6.47;3.00;;;;;;;10.74;66.63;95923.50;4926395;29;20213;-81
2023/10/15 09:07:02;;;;;;;13.13;9.10;;;;;;;11.05;66.28;95918.09;4926932;29;20209;-80
2023/10/15 09:09:32;;;;;;;10.57;9.40;;;;;;;11.30;65.03;95922.63;4935126;29;20229;-79
2023/10/15 09:11:58;;;;;;;9.23;5.73;;;;;;;11.48;64.17;95927.09;4936461;29;20224;-79
2023/10/15 09:14:39;;;;;;;11.10;8.30;;;;;;;11.80;62.65;95929.28;4943616;29;20289;-78
2023/10/15 09:17:09;;;;;;;10.43;7.17;;;;;;;11.92;61.62;95928.13;4930860;28;20221;-78
2023/10/15 09:19:35;;;;;;;6.97;3.47;;;;;;;11.81;61.98;95931.75;4923905;29;20280;-79
2023/10/15 09:22:01;;;;;;;12.07;6.63;;;;;;;12.26;59.59;95930.91;4931558;28;20739;-79
2023/10/15 09:24:27;;;;;;;11.83;6.40;;;;;;;12.24;59.87;95935.44;4916200;29;20202;-80
2023/10/15 09:26:53;;;;;;;7.57;2.37;;;;;;;12.16;58.46;95937.97;4923196;29;20200;-80
2023/10/15 09:29:19;;;;;;;6.50;2.47;;;;;;;12.14;59.28;95938.13;4924294;29;20193;-79
2023/10/15 09:31:44;;;;;;;13.43;6.87;;;;;;;12.33;58.50;95931.13;4922895;29;20711;-79
2023/10/15 09:34:11;;;;;;;11.53;6.67;;;;;;;12.09;58.94;95942.94;4933153;29;20178;-79
2023/10/15 09:36:37;;;;;;;9.43;5.97;;;;;;;12.09;58.23;95942.94;4937194;29;20683;-79
2023/10/15 09:39:12;;;;;;;5.90;2.70;;;;;;;12.02;56.99;95943.69;4922664;29;20198;-81
2023/10/15 09:41:37;;;;;;;9.73;6.87;;;;;;;11.75;56.92;95949.69;4938594;29;20189;-80
2023/10/15 09:44:06;;;;;;;6.77;4.43;;;;;;;11.76;57.14;95946.97;4939524;29;20213;-80
2023/10/15 09:46:32;;;;;;;4.60;1.90;;;;;;;11.59;56.95;95951.16;4932262;29;20206;-80
2023/10/15 09:48:59;;;;;;;4.23;2.10;;;;;;;11.14;58.78;95948.44;4936500;29;20197;-80
2023/10/15 09:51:26;;;;;;;3.17;1.80;;;;;;;10.89;59.53;95952.47;4943145;29;20781;-79
2023/10/15 09:53:52;;;;;;;5.63;2.00;;;;;;;11.03;59.76;95944.19;4924467;29;20186;-80
2023/10/15 09:56:19;;;;;;;5.03;2.00;;;;;;;11.06;59.30;95940.53;4941385;29;20205;-81
2023/10/15 09:58:44;;;;;;;6.53;2.47;;;;;;;11.05;58.23;95939.72;4916436;29;20194;-81
2023/10/15 10:01:25;;;;;;;6.87;2.60;;;;;;;11.35;58.51;95935.22;4920510;29;20892;-79
2023/10/15 10:04:40;;;;;;;7.10;2.37;;;;;;;11.55;58.17;95936.78;4941002;28;20221;-79
2023/10/15 10:07:16;;;;;;;3.47;1.33;;;;;;;11.75;56.91;95936.69;4964280;28;20575;-78
2023/10/15 10:10:09;;;;;;;5.40;1.47;;;;;;;12.24;56.18;95932.84;4926557;29;20209;-80
2023/10/15 10:13:10;;;;;;;3.53;1.80;;;;;;;11.98;56.53;95927.53;4947399;29;20193;-80
2023/10/15 10:15:51;;;;;;;6.33;2.27;;;;;;;12.36;55.65;95933.44;4939268;29;20212;-79
2023/10/15 10:18:18;;;;;;;5.70;1.80;;;;;;;11.52;58.35;95938.84;4947706;29;20210;-78
2023/10/15 10:20:44;;;;;;;6.67;1.57;;;;;;;11.80;58.30;95926.69;4946385;29;20197;-79
2023/10/15 10:23:09;;;;;;;4.53;1.40;;;;;;;11.67;59.58;95934.81;4931669;29;20671;-80
2023/10/15 10:25:40;;;;;;;7.00;1.90;;;;;;;11.90;59.68;95930.88;4925724;29;20329;-78
2023/10/15 10:28:13;;;;;;;3.20;1.63;;;;;;;11.50;59.54;95927.78;4963920;28;20213;-78
2023/10/15 10:30:42;;;;;;;3.03;1.37;;;;;;;11.01;56.96;95924.53;4962866;28;20185;-79
2023/10/15 10:33:09;;;;;;;4.83;1.70;;;;;;;10.61;60.57;95922.16;4944879;29;20333;-77
2023/10/15 10:35:43;;;;;;;7.07;2.10;;;;;;;10.74;61.44;95926.09;4940450;29;20185;-81
2023/10/15 10:38:12;;;;;;;3.23;1.60;;;;;;;10.41;62.10;95934.31;4945750;28;20227;-78
2023/10/15 10:40:54;;;;;;;6.53;1.40;;;;;;;10.57;61.54;95944.16;4933442;29;20181;-79
2023/10/15 10:43:24;;;;;;;7.03;1.60;;;;;;;10.43;61.32;95941.03;4945120;29;20545;-79
2023/10/15 10:46:01;;;;;;;4.97;1.60;;;;;;;10.57;60.71;95938.94;4937609;29;20208;-78
2023/10/15 10:48:33;;;;;;;6.60;1.40;;;;;;;10.84;61.56;95930.44;4934115;29;20217;-79
2023/10/15 10:51:07;;;;;;;4.93;1.20;;;;;;;10.78;60.34;95929.25;4931719;29;20613;-78
2023/10/15 10:53:33;;;;;;;3.00;1.40;;;;;;;10.92;58.50;95933.97;4945523;29;20191;-78
2023/10/15 10:56:06;;;;;;;3.33;1.27;;;;;;;10.86;58.14;95931.94;4942051;29;20193;-78
2023/10/15 10:58:31;;;;;;;5.47;2.17;;;;;;;11.03;57.86;95926.00;4946900;29;20182;-79
2023/10/15 11:00:57;;;;;;;4.93;1.50;;;;;;;11.22;56.63;95926.91;4936719;29;20261;-80
2023/10/15 11:03:23;;;;;;;5.00;1.40;;;;;;;11.62;54.57;95919.63;4936988;29;20257;-80
2023/10/15 11:05:48;;;;;;;5.27;1.63;;;;;;;11.87;53.95;95925.16;4966904;28;20186;-80
2023/10/15 11:08:18;;;;;;;3.43;1.20;;;;;;;11.64;53.61;95922.09;4948599;28;20289;-80
2023/10/15 11:10:45;;;;;;;4.10;1.27;;;;;;;11.83;52.93;95914.19;4970475;28;20182;-80
2023/10/15 11:13:11;;;;;;;3.70;1.40;;;;;;;11.95;52.04;95917.44;4973958;28;20198;-80
2023/10/15 11:15:37;;;;;;;4.53;1.53;;;;;;;12.03;52.18;95911.50;4969368;28;20266;-80
2023/10/15 11:18:05;;;;;;;3.83;2.10;;;;;;;12.19;50.97;95912.47;4967589;28;20214;-80
2023/10/15 11:20:33;;;;;;;3.53;1.70;;;;;;;12.56;50.18;95914.09;4966163;28;20165;-80
2023/10/15 11:23:02;;;;;;;8.00;5.73;;;;;;;12.65;50.55;95915.78;4966201;28;20209;-80
2023/10/15 11:25:27;;;;;;;8.43;6.37;;;;;;;12.29;49.03;95915.00;4947773;28;20194;-80
2023/10/15 11:27:53;;;;;;;6.57;5.97;;;;;;;12.00;49.97;95914.38;4949746;28;20202;-80
2023/10/15 11:30:20;;;;;;;8.17;4.90;;;;;;;11.92;48.79;95920.31;4952484;28;20216;-80
2023/10/15 11:32:46;;;;;;;5.37;2.60;;;;;;;11.62;49.17;95926.63;4966464;28;20181;-80
2023/10/15 11:35:17;;;;;;;2.37;1.03;;;;;;;11.35;48.96;95930.84;4946110;28;20182;-80
2023/10/15 11:37:44;;;;;;;6.57;1.30;;;;;;;11.15;49.46;95925.88;4939590;29;20218;-81
2023/10/15 11:40:11;;;;;;;4.47;1.63;;;;;;;11.37;49.55;95930.69;4943173;28;20656;-81
2023/10/15 11:43:04;;;;;;;3.23;1.17;;;;;;;11.51;50.01;95926.81;4941384;29;20344;-82
2023/10/15 11:45:30;;;;;;;3.13;1.37;;;;;;;11.65;49.61;95934.13;4936426;29;20714;-81
2023/10/15 11:47:56;;;;;;;3.60;1.27;;;;;;;12.09;49.44;95932.53;4937780;29;20218;-80
2023/10/15 11:50:25;;;;;;;2.40;0.93;;;;;;;12.01;48.62;95932.44;4924378;29;20208;-81
2023/10/15 11:52:54;;;;;;;2.50;1.20;;;;;;;12.05;48.30;95930.38;4941640;29;20190;-80
2023/10/15 11:55:20;;;;;;;6.20;1.20;;;;;;;12.04;49.19;95929.56;4922088;29;20640;-80
2023/10/15 11:57:53;;;;;;;3.23;1.17;;;;;;;12.19;47.91;95917.69;4940057;29;20202;-79
2023/10/15 12:00:23;;;;;;;4.33;1.00;;;;;;;12.25;48.26;95916.25;4920817;29;20181;-81